createdAt,value
2018-04-28T00:01:23.075Z,6.50
2018-04-28T00:03:49.893Z,5.67
2018-04-28T00:06:16.769Z,6.50
2018-04-28T00:08:44.113Z,8.48
2018-04-28T00:11:10.923Z,8.68
2018-04-28T00:13:37.987Z,7.30
2018-04-28T00:16:06.417Z,8.23
2018-04-28T00:18:33.220Z,7.00
2018-04-28T00:21:00.391Z,6.45
2018-04-28T00:23:27.529Z,8.57
2018-04-28T00:25:54.685Z,7.22
2018-04-28T00:28:27.321Z,6.53
2018-04-28T00:31:00.349Z,10.88
2018-04-28T00:33:28.326Z,6.97
2018-04-28T00:36:09.997Z,9.45
2018-04-28T00:38:37.161Z,9.55
2018-04-28T00:41:04.314Z,8.45
2018-04-28T00:43:31.134Z,5.12
2018-04-28T00:46:03.012Z,9.60
2018-04-28T00:48:29.812Z,7.30
2018-04-28T00:51:00.465Z,6.47
2018-04-28T00:53:27.269Z,9.05
2018-04-28T00:55:55.173Z,7.75
2018-04-28T00:58:38.754Z,9.40
2018-04-28T01:01:09.504Z,8.05
2018-04-28T01:03:37.336Z,7.65
2018-04-28T01:06:04.185Z,7.28
2018-04-28T01:08:30.984Z,6.97
2018-04-28T01:10:58.081Z,7.50
2018-04-28T01:13:45.771Z,11.60
2018-04-28T01:16:12.858Z,8.20
2018-04-28T01:18:45.943Z,9.15
2018-04-28T01:21:29.784Z,8.80
2018-04-28T01:23:57.758Z,5.78
2018-04-28T01:26:30.736Z,10.07
2018-04-28T01:29:03.476Z,9.60
2018-04-28T01:31:30.573Z,7.30
2018-04-28T01:33:59.307Z,7.55
2018-04-28T01:36:26.146Z,7.78
2018-04-28T01:38:52.967Z,12.27
2018-04-28T01:41:34.693Z,12.37
2018-04-28T01:44:01.537Z,7.72
2018-04-28T01:46:29.548Z,13.43
2018-04-28T01:48:58.289Z,8.32
2018-04-28T01:51:27.961Z,7.63
2018-04-28T01:54:09.981Z,7.78
2018-04-28T01:56:55.608Z,10.55
2018-04-28T01:59:24.230Z,10.30
2018-04-28T02:01:51.360Z,9.68
2018-04-28T02:04:18.518Z,11.30
2018-04-28T02:07:00.620Z,6.70
2018-04-28T02:09:28.481Z,10.57
2018-04-28T02:12:13.244Z,6.70
2018-04-28T02:14:58.750Z,6.85
2018-04-28T02:17:25.886Z,7.50
2018-04-28T02:19:53.379Z,6.82
2018-04-28T02:22:37.997Z,9.15
2018-04-28T02:25:10.987Z,9.65
2018-04-28T02:27:40.885Z,8.15
2018-04-28T02:30:07.697Z,8.95
2018-04-28T02:32:54.317Z,7.07
2018-04-28T02:35:22.024Z,7.03
2018-04-28T02:37:49.166Z,10.13
2018-04-28T02:40:17.723Z,8.63
2018-04-28T02:42:50.842Z,9.07
2018-04-28T02:45:23.717Z,10.20
2018-04-28T02:47:50.513Z,8.68
2018-04-28T02:50:17.333Z,6.80
2018-04-28T02:52:44.124Z,7.93
2018-04-28T02:55:17.041Z,12.60
2018-04-28T02:57:44.598Z,7.70
2018-04-28T03:00:12.668Z,7.80
2018-04-28T03:02:39.485Z,13.68
2018-04-28T03:05:06.383Z,7.20
2018-04-28T03:07:33.208Z,9.60
2018-04-28T03:10:00.788Z,8.63
2018-04-28T03:12:27.593Z,9.07
2018-04-28T03:14:54.436Z,10.67
2018-04-28T03:17:28.036Z,7.78
2018-04-28T03:19:55.324Z,9.75
2018-04-28T03:22:22.136Z,6.43
2018-04-28T03:24:54.744Z,7.40
2018-04-28T03:27:33.333Z,9.70
2018-04-28T03:30:02.794Z,7.05
2018-04-28T03:32:36.257Z,11.30
2018-04-28T03:35:02.849Z,8.00
2018-04-28T03:37:30.507Z,8.90
2018-04-28T03:39:57.121Z,8.93
2018-04-28T03:42:26.628Z,11.00
2018-04-28T03:44:53.260Z,6.18
2018-04-28T03:47:37.716Z,10.07
2018-04-28T03:50:06.304Z,7.68
2018-04-28T03:52:42.680Z,9.63
2018-04-28T03:55:09.280Z,8.10
2018-04-28T03:57:41.737Z,9.10
2018-04-28T04:00:14.421Z,9.52
2018-04-28T04:02:46.793Z,11.60
2018-04-28T04:05:14.130Z,9.45
2018-04-28T04:07:56.761Z,13.93
2018-04-28T04:10:29.646Z,8.43
2018-04-28T04:12:56.229Z,12.75
2018-04-28T04:15:28.914Z,8.43
2018-04-28T04:18:01.369Z,7.80
2018-04-28T04:20:28.873Z,8.60
2018-04-28T04:23:13.223Z,8.60
2018-04-28T04:25:57.908Z,10.75
2018-04-28T04:28:25.233Z,10.48
2018-04-28T04:30:56.685Z,10.02
2018-04-28T04:33:24.137Z,11.13
2018-04-28T04:35:50.716Z,9.70
2018-04-28T04:38:17.661Z,9.97
2018-04-28T04:40:46.294Z,6.50
2018-04-28T04:43:19.224Z,16.75
2018-04-28T04:46:04.609Z,11.82
2018-04-28T04:48:46.084Z,10.68
2018-04-28T04:51:18.872Z,12.70
2018-04-28T04:53:45.506Z,10.13
2018-04-28T04:56:20.953Z,8.90
2018-04-28T04:58:48.237Z,13.62
2018-04-28T05:01:20.700Z,7.53
2018-04-28T05:04:03.983Z,8.95
2018-04-28T05:06:33.729Z,12.23
2018-04-28T05:09:01.048Z,9.95
2018-04-28T05:11:33.760Z,10.18
2018-04-28T05:14:15.559Z,8.98
2018-04-28T05:16:42.397Z,8.13
2018-04-28T05:19:15.190Z,13.10
2018-04-28T05:21:42.021Z,9.10
2018-04-28T05:24:14.550Z,8.10
2018-04-28T05:26:41.845Z,12.30
2018-04-28T05:29:09.413Z,8.50
2018-04-28T05:31:37.785Z,9.47
2018-04-28T05:34:10.333Z,8.45
2018-04-28T05:36:37.655Z,10.55
2018-04-28T05:39:10.129Z,9.65
2018-04-28T05:41:41.358Z,9.10
2018-04-28T05:44:09.706Z,9.35
2018-04-28T05:46:36.334Z,10.57
2018-04-28T05:49:10.736Z,8.27
2018-04-28T05:51:46.152Z,8.32
2018-04-28T05:54:18.748Z,8.00
2018-04-28T05:57:05.957Z,9.30
2018-04-28T05:59:38.395Z,9.18
2018-04-28T06:02:10.768Z,8.48
2018-04-28T06:04:44.377Z,8.40
2018-04-28T06:07:16.894Z,10.10
2018-04-28T06:09:46.322Z,10.00
2018-04-28T06:12:19.141Z,9.77
2018-04-28T06:15:00.630Z,7.50
2018-04-28T06:17:31.234Z,7.57
2018-04-28T06:20:03.924Z,7.70
2018-04-28T06:22:30.781Z,10.68
2018-04-28T06:24:57.620Z,6.12
2018-04-28T06:27:24.228Z,12.02
2018-04-28T06:29:50.817Z,9.33
2018-04-28T06:32:17.433Z,9.75
2018-04-28T06:34:44.386Z,8.38
2018-04-28T06:37:11.224Z,6.77
2018-04-28T06:39:38.033Z,9.27
2018-04-28T06:42:04.662Z,12.75
2018-04-28T06:44:31.248Z,9.82
2018-04-28T06:46:57.862Z,9.30
2018-04-28T06:49:24.448Z,9.50
2018-04-28T06:51:51.256Z,7.05
2018-04-28T06:54:17.886Z,6.05
2018-04-28T06:56:44.740Z,11.57
2018-04-28T06:59:11.694Z,9.90
2018-04-28T07:01:38.298Z,8.48
2018-04-28T07:04:04.910Z,8.88
2018-04-28T07:06:31.530Z,13.82
2018-04-28T07:08:58.141Z,11.10
2018-04-28T07:11:24.983Z,11.50
2018-04-28T07:13:51.557Z,10.98
2018-04-28T07:16:18.186Z,6.70
2018-04-28T07:18:44.785Z,13.15
2018-04-28T07:21:11.372Z,9.07
2018-04-28T07:23:37.948Z,8.52
2018-04-28T07:26:04.808Z,12.02
2018-04-28T07:28:31.418Z,7.93
2018-04-28T07:30:58.016Z,10.93
2018-04-28T07:33:24.635Z,11.55
2018-04-28T07:35:51.583Z,8.43
2018-04-28T07:38:18.161Z,12.48
2018-04-28T07:40:44.756Z,11.97
2018-04-28T07:43:11.597Z,8.07
2018-04-28T07:45:38.357Z,7.20
2018-04-28T07:48:04.923Z,7.93
2018-04-28T07:50:31.553Z,12.57
2018-04-28T07:52:58.451Z,8.63
2018-04-28T07:55:25.264Z,8.38
2018-04-28T07:57:51.872Z,8.57
2018-04-28T08:00:18.536Z,8.80
2018-04-28T08:02:45.424Z,10.82
2018-04-28T08:05:12.069Z,11.23
2018-04-28T08:07:38.640Z,9.85
2018-04-28T08:10:05.532Z,9.75
2018-04-28T08:12:32.136Z,9.53
2018-04-28T08:14:58.728Z,12.82
2018-04-28T08:17:25.341Z,12.23
2018-04-28T08:19:52.298Z,11.50
2018-04-28T08:22:18.913Z,10.63
2018-04-28T08:24:45.484Z,8.80
2018-04-28T08:27:12.122Z,17.77
2018-04-28T08:29:38.692Z,10.73
2018-04-28T08:32:05.594Z,9.98
2018-04-28T08:34:32.184Z,12.00
2018-04-28T08:36:58.800Z,10.15
2018-04-28T08:39:25.398Z,14.70
2018-04-28T08:41:52.041Z,10.85
2018-04-28T08:44:18.652Z,11.02
2018-04-28T08:46:45.244Z,9.70
2018-04-28T08:49:11.848Z,10.82
2018-04-28T08:51:38.798Z,8.88
2018-04-28T08:54:05.398Z,11.88
2018-04-28T08:56:31.996Z,8.63
2018-04-28T08:58:58.618Z,10.80
2018-04-28T09:01:25.236Z,10.90
2018-04-28T09:03:51.868Z,11.43
2018-04-28T09:06:18.728Z,10.10
2018-04-28T09:08:45.312Z,14.90
2018-04-28T09:11:12.561Z,10.48
2018-04-28T09:13:39.377Z,11.07
2018-04-28T09:16:06.194Z,12.33
2018-04-28T09:18:33.249Z,9.85
2018-04-28T09:21:00.073Z,10.32
2018-04-28T09:23:27.139Z,10.48
2018-04-28T09:25:53.965Z,9.13
2018-04-28T09:28:20.770Z,9.50
2018-04-28T09:30:47.572Z,9.02
2018-04-28T09:33:14.625Z,10.15
2018-04-28T09:35:41.436Z,9.47
2018-04-28T09:38:08.264Z,10.23
2018-04-28T09:40:35.347Z,9.85
2018-04-28T09:43:02.203Z,11.88
2018-04-28T09:45:28.978Z,8.50
2018-04-28T09:47:55.821Z,9.30
2018-04-28T09:50:22.934Z,8.73
2018-04-28T09:52:49.741Z,9.10
2018-04-28T09:55:16.822Z,11.13
2018-04-28T09:57:49.906Z,8.03
2018-04-28T10:00:22.748Z,13.30
2018-04-28T10:02:49.840Z,11.10
2018-04-28T10:05:16.996Z,10.02
2018-04-28T10:07:43.829Z,11.75
2018-04-28T10:10:10.862Z,12.30
2018-04-28T10:12:38.011Z,15.63
2018-04-28T10:15:04.985Z,8.15
2018-04-28T10:17:32.138Z,13.85
2018-04-28T10:19:59.176Z,13.05
2018-04-28T10:22:25.977Z,9.75
2018-04-28T10:24:53.068Z,13.97
2018-04-28T10:27:20.116Z,8.83
2018-04-28T10:29:47.168Z,14.98
2018-04-28T10:32:13.994Z,8.82
2018-04-28T10:34:40.813Z,10.48
2018-04-28T10:37:07.621Z,14.73
2018-04-28T10:39:34.446Z,10.32
2018-04-28T10:42:01.257Z,12.75
2018-04-28T10:44:28.098Z,7.37
2018-04-28T10:46:54.888Z,11.20
2018-04-28T10:49:21.726Z,11.00
2018-04-28T10:51:48.563Z,13.07
2018-04-28T10:54:15.337Z,8.47
2018-04-28T10:56:42.437Z,10.57
2018-04-28T10:59:09.265Z,9.75
2018-04-28T11:01:36.098Z,15.73
2018-04-28T11:04:02.875Z,12.00
2018-04-28T11:06:29.688Z,7.90
2018-04-28T11:08:56.526Z,8.98
2018-04-28T11:11:23.605Z,9.53
2018-04-28T11:13:50.433Z,9.50
2018-04-28T11:16:17.216Z,9.70
2018-04-28T11:18:44.008Z,19.02
2018-04-28T11:21:10.805Z,10.93
2018-04-28T11:23:37.919Z,10.90
2018-04-28T11:26:04.764Z,11.30
2018-04-28T11:28:32.003Z,10.03
2018-04-28T11:30:59.064Z,13.53
2018-04-28T11:33:26.112Z,8.63
2018-04-28T11:35:52.904Z,11.05
2018-04-28T11:38:19.792Z,7.50
2018-04-28T11:40:46.561Z,7.90
2018-04-28T11:43:13.392Z,8.77
2018-04-28T11:45:40.205Z,13.18
2018-04-28T11:48:07.050Z,10.63
2018-04-28T11:50:33.869Z,7.40
2018-04-28T11:53:00.655Z,11.30
2018-04-28T11:55:27.700Z,10.97
2018-04-28T11:57:54.748Z,8.53
2018-04-28T12:00:21.562Z,10.80
2018-04-28T12:02:48.642Z,9.70
2018-04-28T12:05:15.512Z,10.40
2018-04-28T12:07:42.537Z,8.73
2018-04-28T12:10:09.373Z,11.52
2018-04-28T12:12:36.232Z,14.57
2018-04-28T12:15:03.267Z,13.57
2018-04-28T12:17:30.105Z,11.98
2018-04-28T12:19:56.887Z,10.10
2018-04-28T12:22:23.896Z,7.03
2018-04-28T12:24:51.053Z,10.82
2018-04-28T12:27:18.102Z,7.85
2018-04-28T12:29:44.963Z,11.57
2018-04-28T12:32:11.739Z,9.65
2018-04-28T12:34:38.554Z,10.85
2018-04-28T12:37:05.365Z,9.38
2018-04-28T12:39:32.248Z,9.55
2018-04-28T12:41:59.369Z,9.13
2018-04-28T12:44:26.153Z,9.17
2018-04-28T12:46:53.004Z,11.77
2018-04-28T12:49:19.789Z,12.15
2018-04-28T12:51:46.571Z,10.45
2018-04-28T12:54:13.417Z,9.48
2018-04-28T12:56:40.203Z,13.23
2018-04-28T12:59:06.997Z,9.65
2018-04-28T13:01:33.809Z,8.10
2018-04-28T13:04:00.849Z,9.23
2018-04-28T13:06:27.670Z,12.75
2018-04-28T13:08:54.493Z,10.52
2018-04-28T13:11:21.305Z,10.73
2018-04-28T13:13:48.138Z,9.13
2018-04-28T13:16:15.278Z,10.67
2018-04-28T13:18:42.098Z,9.33
2018-04-28T13:21:08.964Z,8.05
2018-04-28T13:23:36.015Z,10.43
2018-04-28T13:26:02.828Z,7.90
2018-04-28T13:28:29.718Z,12.15
2018-04-28T13:30:56.563Z,10.70
2018-04-28T13:33:23.699Z,10.55
2018-04-28T13:35:50.530Z,11.15
2018-04-28T13:38:17.370Z,12.05
2018-04-28T13:40:44.430Z,13.53
2018-04-28T13:43:11.261Z,9.40
2018-04-28T13:45:38.077Z,15.27
2018-04-28T13:48:05.161Z,11.63
2018-04-28T13:50:31.977Z,11.88
2018-04-28T13:52:59.483Z,5.78
2018-04-28T13:55:26.293Z,7.80
2018-04-28T13:57:53.459Z,10.25
2018-04-28T14:00:20.270Z,8.30
2018-04-28T14:02:47.089Z,5.80
2018-04-28T14:05:13.955Z,9.77
2018-04-28T14:07:40.790Z,9.13
2018-04-28T14:10:07.635Z,13.85
2018-04-28T14:12:34.506Z,11.98
2018-04-28T14:15:01.369Z,10.57
2018-04-28T14:17:28.191Z,8.65
2018-04-28T14:19:55.038Z,8.02
2018-04-28T14:22:22.094Z,10.00
2018-04-28T14:24:48.971Z,11.32
2018-04-28T14:27:16.062Z,5.97
2018-04-28T14:29:43.110Z,9.05
2018-04-28T14:32:09.933Z,10.43
2018-04-28T14:34:37.008Z,16.87
2018-04-28T14:37:03.805Z,8.63
2018-04-28T14:39:30.670Z,8.07
2018-04-28T14:41:57.499Z,11.45
2018-04-28T14:44:24.386Z,11.00
2018-04-28T14:46:51.210Z,9.17
2018-04-28T14:49:18.058Z,10.30
2018-04-28T14:51:44.939Z,11.27
2018-04-28T14:54:11.819Z,10.27
2018-04-28T14:56:38.720Z,8.05
2018-04-28T14:59:05.879Z,7.37
2018-04-28T15:01:32.690Z,7.80
2018-04-28T15:03:59.553Z,9.43
2018-04-28T15:06:26.367Z,9.37
2018-04-28T15:08:53.220Z,9.98
2018-04-28T15:11:20.059Z,9.05
2018-04-28T15:13:46.881Z,9.97
2018-04-28T15:16:13.705Z,8.90
2018-04-28T15:18:40.521Z,9.45
2018-04-28T15:21:07.657Z,14.95
2018-04-28T15:23:34.466Z,8.50
2018-04-28T15:26:01.306Z,12.32
2018-04-28T15:28:28.221Z,11.88
2018-04-28T15:30:55.341Z,8.38
2018-04-28T15:33:22.572Z,10.95
2018-04-28T15:35:49.461Z,10.10
2018-04-28T15:38:16.249Z,10.77
2018-04-28T15:40:44.386Z,12.75
2018-04-28T15:43:11.313Z,9.93
2018-04-28T15:45:38.354Z,10.05
2018-04-28T15:48:05.136Z,7.95
2018-04-28T15:50:31.937Z,10.07
2018-04-28T15:52:58.877Z,13.52
2018-04-28T15:55:25.800Z,8.10
2018-04-28T15:57:52.619Z,9.10
2018-04-28T16:00:19.793Z,11.43
2018-04-28T16:02:46.714Z,8.33
2018-04-28T16:05:13.630Z,13.32
2018-04-28T16:07:40.485Z,12.93
2018-04-28T16:10:07.508Z,15.27
2018-04-28T16:12:34.335Z,8.77
2018-04-28T16:15:01.275Z,7.47
2018-04-28T16:17:28.071Z,10.63
2018-04-28T16:19:54.888Z,14.57
2018-04-28T16:22:22.023Z,8.00
2018-04-28T16:24:48.871Z,9.80
2018-04-28T16:27:15.768Z,13.52
2018-04-28T16:29:42.597Z,9.47
2018-04-28T16:32:09.450Z,11.12
2018-04-28T16:34:36.314Z,14.30
2018-04-28T16:37:03.178Z,7.12
2018-04-28T16:39:30.028Z,10.82
2018-04-28T16:41:57.179Z,9.18
2018-04-28T16:44:24.048Z,7.80
2018-04-28T16:46:50.866Z,13.25
2018-04-28T16:49:17.681Z,9.95
2018-04-28T16:51:44.869Z,10.13
2018-04-28T16:54:11.724Z,8.18
2018-04-28T16:56:38.567Z,12.27
2018-04-28T16:59:05.484Z,8.98
2018-04-28T17:01:32.282Z,15.57
2018-04-28T17:03:59.101Z,6.55
2018-04-28T17:06:25.965Z,8.10
2018-04-28T17:08:53.021Z,11.50
2018-04-28T17:11:19.858Z,10.55
2018-04-28T17:13:46.953Z,7.78
2018-04-28T17:16:13.779Z,17.83
2018-04-28T17:18:40.845Z,9.95
2018-04-28T17:21:08.002Z,8.20
2018-04-28T17:23:34.847Z,9.43
2018-04-28T17:26:01.669Z,10.77
2018-04-28T17:28:28.505Z,11.55
2018-04-28T17:30:55.360Z,8.27
2018-04-28T17:33:22.219Z,10.18
2018-04-28T17:35:49.368Z,10.90
2018-04-28T17:38:16.224Z,7.68
2018-04-28T17:40:43.087Z,13.57
2018-04-28T17:43:09.927Z,12.82
2018-04-28T17:45:37.056Z,9.35
2018-04-28T17:48:03.919Z,13.45
2018-04-28T17:50:30.757Z,9.45
2018-04-28T17:52:57.894Z,9.33
2018-04-28T17:55:24.702Z,11.77
2018-04-28T17:57:51.879Z,9.10
2018-04-28T18:00:18.694Z,10.68
2018-04-28T18:02:45.586Z,8.00
2018-04-28T18:05:12.409Z,11.30
2018-04-28T18:07:39.559Z,14.63
2018-04-28T18:10:06.411Z,12.25
2018-04-28T18:12:33.558Z,15.43
2018-04-28T18:15:00.409Z,10.00
2018-04-28T18:17:27.541Z,9.90
2018-04-28T18:19:54.379Z,9.13
2018-04-28T18:22:21.463Z,9.85
2018-04-28T18:24:48.324Z,13.05
2018-04-28T18:27:15.158Z,10.70
2018-04-28T18:29:41.981Z,12.77
2018-04-28T18:32:08.823Z,19.42
2018-04-28T18:34:35.666Z,10.43
2018-04-28T18:37:02.489Z,11.85
2018-04-28T18:39:29.321Z,14.90
2018-04-28T18:41:56.179Z,11.18
2018-04-28T18:44:23.019Z,21.90
2018-04-28T18:46:49.854Z,20.73
2018-04-28T18:49:16.709Z,11.30
2018-04-28T18:51:43.562Z,16.50
2018-04-28T18:54:10.405Z,16.50
2018-04-28T18:56:37.281Z,14.50
2018-04-28T18:59:04.390Z,17.73
2018-04-28T19:01:31.209Z,24.45
2018-04-28T19:03:58.086Z,15.45
2018-04-28T19:06:24.909Z,11.80
2018-04-28T19:08:51.738Z,15.43
2018-04-28T19:11:18.574Z,14.45
2018-04-28T19:13:45.423Z,17.58
2018-04-28T19:16:12.249Z,16.55
2018-04-28T19:18:39.091Z,21.37
2018-04-28T19:21:05.947Z,28.02
2018-04-28T19:23:32.799Z,22.27
2018-04-28T19:25:59.643Z,19.05
2018-04-28T19:28:26.821Z,34.33
2018-04-28T19:30:53.966Z,27.20
2018-04-28T19:33:21.122Z,28.90
2018-04-28T19:35:47.973Z,30.10
2018-04-28T19:38:14.835Z,32.78
2018-04-28T19:40:41.722Z,43.53
2018-04-28T19:43:08.579Z,35.80
2018-04-28T19:45:35.430Z,40.25
2018-04-28T19:48:02.283Z,35.13
2018-04-28T19:50:29.117Z,25.08
2018-04-28T19:52:55.954Z,32.58
2018-04-28T19:55:22.827Z,31.17
2018-04-28T19:57:49.676Z,38.00
2018-04-28T20:00:16.532Z,30.65
2018-04-28T20:02:43.377Z,34.75
2018-04-28T20:05:10.234Z,49.25
2018-04-28T20:07:37.053Z,48.60
2018-04-28T20:10:04.035Z,37.40
2018-04-28T20:12:30.854Z,27.00
2018-04-28T20:14:57.964Z,17.40
2018-04-28T20:17:24.805Z,17.55
2018-04-28T20:19:51.651Z,16.08
2018-04-28T20:22:24.637Z,18.77
2018-04-28T20:24:57.539Z,19.93
2018-04-28T20:27:24.420Z,19.70
2018-04-28T20:29:51.250Z,28.33
2018-04-28T20:32:18.362Z,20.60
2018-04-28T20:34:45.214Z,15.00
2018-04-28T20:37:12.030Z,15.32
2018-04-28T20:39:38.878Z,15.23
2018-04-28T20:42:05.748Z,12.53
2018-04-28T20:44:32.887Z,14.07
2018-04-28T20:46:59.699Z,14.70
2018-04-28T20:49:26.565Z,13.85
2018-04-28T20:51:53.418Z,15.20
2018-04-28T20:54:20.461Z,11.82
2018-04-28T20:56:47.305Z,15.30
2018-04-28T20:59:14.158Z,14.25
2018-04-28T21:01:41.003Z,14.60
2018-04-28T21:04:07.870Z,11.57
2018-04-28T21:06:34.984Z,13.38
2018-04-28T21:09:01.818Z,14.95
2018-04-28T21:11:28.702Z,13.32
2018-04-28T21:13:55.529Z,12.05
2018-04-28T21:16:22.391Z,13.90
2018-04-28T21:18:49.255Z,15.55
2018-04-28T21:21:16.355Z,20.88
2018-04-28T21:23:43.176Z,23.35
2018-04-28T21:26:10.112Z,18.25
2018-04-28T21:28:36.975Z,16.90
2018-04-28T21:31:03.831Z,23.65
2018-04-28T21:33:30.717Z,24.80
2018-04-28T21:35:57.561Z,17.77
2018-04-28T21:38:24.389Z,22.98
2018-04-28T21:40:51.611Z,22.95
2018-04-28T21:43:18.449Z,46.88
2018-04-28T21:45:45.604Z,28.73
2018-04-28T21:48:12.475Z,33.40
2018-04-28T21:50:39.305Z,45.20
2018-04-28T21:53:06.154Z,43.95
2018-04-28T21:55:33.028Z,48.30
2018-04-28T21:57:59.882Z,78.55
2018-04-28T22:00:26.707Z,110.28
2018-04-28T22:02:53.839Z,114.00
2018-04-28T22:05:20.691Z,64.53
2018-04-28T22:07:47.543Z,37.53
2018-04-28T22:10:14.419Z,96.57
2018-04-28T22:12:41.243Z,42.55
2018-04-28T22:15:08.105Z,54.53
2018-04-28T22:17:34.944Z,30.27
2018-04-28T22:20:02.019Z,46.00
2018-04-28T22:22:28.911Z,25.33
2018-04-28T22:24:55.783Z,34.47
2018-04-28T22:27:22.869Z,70.30
2018-04-28T22:29:50.005Z,68.85
2018-04-28T22:32:17.159Z,59.25
2018-04-28T22:34:43.985Z,49.30
2018-04-28T22:37:10.839Z,25.15
2018-04-28T22:39:37.683Z,38.65
2018-04-28T22:42:05.654Z,23.75
2018-04-28T22:44:32.489Z,22.60
2018-04-28T22:46:59.363Z,26.00
2018-04-28T22:49:26.211Z,15.85
2018-04-28T22:51:53.400Z,20.40
2018-04-28T22:54:20.214Z,16.73
2018-04-28T22:56:47.336Z,17.80
2018-04-28T22:59:14.156Z,12.88
2018-04-28T23:01:41.330Z,12.20
2018-04-28T23:04:08.195Z,14.00
2018-04-28T23:06:35.318Z,12.88
2018-04-28T23:09:02.173Z,10.75
2018-04-28T23:11:29.310Z,10.25
2018-04-28T23:13:56.155Z,8.98
2018-04-28T23:16:23.253Z,9.53
2018-04-28T23:18:50.455Z,14.07
2018-04-28T23:21:17.290Z,10.25
2018-04-28T23:23:44.121Z,11.23
2018-04-28T23:26:11.294Z,10.30
2018-04-28T23:28:38.139Z,11.52
2018-04-28T23:31:04.965Z,9.70
2018-04-28T23:33:32.130Z,13.77
2018-04-28T23:35:58.953Z,10.55
2018-04-28T23:38:26.117Z,10.32
2018-04-28T23:40:52.997Z,10.18
2018-04-28T23:43:20.110Z,8.90
2018-04-28T23:45:46.989Z,13.02
2018-04-28T23:48:13.839Z,11.65
2018-04-28T23:50:40.949Z,12.03
2018-04-28T23:53:08.051Z,13.73
2018-04-28T23:55:34.898Z,13.98
2018-04-28T23:58:01.757Z,13.13
